KRBG/RBG METAR and TAF weather

Enter ICAO airport designator
Station Type Date Time Source
KRBG METAR 2019/02/20 07:53 UTC NOAA

KRBG 200753Z AUTO 16005KT 7SM -RA BKN034 05/03 A3001 RMK AO2 SLP166 P0002 T00500028 400781011


Station Type Date Time Source
KRBG Decoded METAR 2019/02/20 07:53 UTC NOAA

ROSEBURG REGIONAL AIRPORT, OR, United States (KRBG) 43-14N 123-21W 154M
Feb 20, 2019 - 02:53 AM EST / 2019.02.20 0753 UTC
Wind: from the SSE (160 degrees) at 6 MPH (5 KT):0
Visibility: 7 mile(s):0
Sky conditions: mostly cloudy
Weather: light rain
Precipitation last hour: 0.02 inches
Temperature: 41.0 F (5.0 C)
Dew Point: 37.0 F (2.8 C)
Relative Humidity: 85%
Pressure (altimeter): 30.01 in. Hg (1016 hPa)
ob: KRBG 200753Z AUTO 16005KT 7SM -RA BKN034 05/03 A3001 RMK AO2 SLP166 P0002 T00500028 400781011
cycle: 8

Station Type Date Time Source
KRBG TAF 2019/02/20 06:42 UTC NOAA

TAF KRBG 200538Z 2006/2106 19006KT P6SM -RA SCT025 OVC035
FM201700 30009KT P6SM -SHRA SCT010 BKN015 OVC035


Example: see airport list